createdAt,value
2019-01-18T00:01:54.733Z,0.65
2019-01-18T00:04:25.842Z,0.72
2019-01-18T00:06:55.863Z,0.48
2019-01-18T00:09:25.955Z,0.68
2019-01-18T00:11:55.974Z,0.38
2019-01-18T00:14:26.129Z,0.34
2019-01-18T00:16:56.164Z,0.50
2019-01-18T00:19:26.267Z,0.46
2019-01-18T00:21:56.270Z,0.49
2019-01-18T00:24:26.328Z,0.51
2019-01-18T00:26:56.469Z,0.58
2019-01-18T00:29:29.737Z,0.59
2019-01-18T00:31:58.085Z,0.52
2019-01-18T00:34:28.090Z,0.52
2019-01-18T00:36:58.112Z,0.63
2019-01-18T00:39:28.165Z,0.44
2019-01-18T00:41:58.142Z,0.35
2019-01-18T00:44:28.120Z,0.50
2019-01-18T00:46:58.120Z,0.67
2019-01-18T00:49:28.565Z,0.75
2019-01-18T00:51:59.606Z,0.74
2019-01-18T00:54:29.566Z,0.75
2019-01-18T00:56:59.490Z,0.94
2019-01-18T00:59:29.454Z,0.90
2019-01-18T01:02:00.325Z,0.84
2019-01-18T01:04:30.276Z,0.79
2019-01-18T01:07:00.236Z,0.92
2019-01-18T01:09:30.156Z,0.98
2019-01-18T01:12:05.871Z,0.94
2019-01-18T01:14:36.914Z,0.88
2019-01-18T01:17:07.231Z,0.57
2019-01-18T01:19:38.250Z,0.54
2019-01-18T01:22:08.278Z,0.54
2019-01-18T01:24:38.280Z,0.50
2019-01-18T01:27:08.276Z,0.57
2019-01-18T01:29:43.074Z,0.47
2019-01-18T01:32:09.982Z,0.38
2019-01-18T01:34:39.972Z,0.45
2019-01-18T01:37:09.945Z,0.42
2019-01-18T01:39:39.998Z,0.37
2019-01-18T01:42:10.007Z,0.25
2019-01-18T01:44:40.039Z,0.15
2019-01-18T01:47:10.023Z,0.33
2019-01-18T01:49:39.995Z,0.28
2019-01-18T01:52:09.945Z,0.28
2019-01-18T01:54:40.195Z,0.21
2019-01-18T01:57:10.171Z,0.13
2019-01-18T01:59:40.198Z,0.16
2019-01-18T02:02:10.249Z,0.09
2019-01-18T02:04:43.133Z,0.14
2019-01-18T02:07:13.125Z,0.20
2019-01-18T02:09:43.113Z,0.12
2019-01-18T02:12:13.083Z,0.12
2019-01-18T02:14:43.058Z,0.12
2019-01-18T02:17:13.008Z,0.04
2019-01-18T02:19:43.011Z,-0.11
2019-01-18T02:22:12.979Z,0.03
2019-01-18T02:24:43.960Z,-0.02
2019-01-18T02:27:13.691Z,-0.13
2019-01-18T02:29:43.607Z,-0.06
2019-01-18T02:32:13.375Z,-0.11
2019-01-18T02:34:43.262Z,-0.04
2019-01-18T02:37:13.167Z,-0.03
2019-01-18T02:39:43.060Z,-0.11
2019-01-18T02:42:12.826Z,-0.12
2019-01-18T02:44:42.642Z,-0.17
2019-01-18T02:47:12.564Z,-0.15
2019-01-18T02:49:42.445Z,-0.13
2019-01-18T02:52:12.359Z,-0.18
2019-01-18T02:54:42.168Z,-0.08
2019-01-18T02:57:12.007Z,-0.10
2019-01-18T02:59:41.882Z,-0.07
2019-01-18T03:02:11.625Z,-0.12
2019-01-18T03:04:41.577Z,-0.14
2019-01-18T03:07:11.497Z,-0.12
2019-01-18T03:09:41.311Z,-0.15
2019-01-18T03:12:11.185Z,-0.12
2019-01-18T03:14:41.041Z,-0.07
2019-01-18T03:17:10.944Z,-0.09
2019-01-18T03:19:40.701Z,-0.06
2019-01-18T03:22:10.469Z,-0.04
2019-01-18T03:24:40.429Z,-0.05
2019-01-18T03:27:10.330Z,-0.04
2019-01-18T03:29:40.266Z,-0.08
2019-01-18T03:32:10.041Z,-0.15
2019-01-18T03:34:39.951Z,-0.13
2019-01-18T03:37:09.833Z,-0.15
2019-01-18T03:39:39.664Z,-0.23
2019-01-18T03:42:10.459Z,-0.24
2019-01-18T03:44:40.297Z,-0.29
2019-01-18T03:47:10.189Z,-0.31
2019-01-18T03:49:46.145Z,-0.33
2019-01-18T03:52:15.981Z,-0.24
2019-01-18T03:54:45.837Z,-0.23
2019-01-18T03:57:15.654Z,-0.29
2019-01-18T03:59:45.495Z,-0.26
2019-01-18T04:02:15.335Z,-0.40
2019-01-18T04:04:46.733Z,-0.34
2019-01-18T04:07:16.551Z,-0.25
2019-01-18T04:09:46.459Z,-0.26
2019-01-18T04:12:16.316Z,-0.22
2019-01-18T04:14:46.185Z,-0.23
2019-01-18T04:17:16.019Z,-0.21
2019-01-18T04:19:49.153Z,-0.16
2019-01-18T04:22:22.005Z,-0.20
2019-01-18T04:24:51.823Z,-0.16
2019-01-18T04:27:21.613Z,-0.12
2019-01-18T04:29:52.468Z,-0.12
2019-01-18T04:32:22.670Z,-0.11
2019-01-18T04:34:54.069Z,-0.20
2019-01-18T04:37:24.355Z,-0.20
2019-01-18T04:39:54.153Z,-0.20
2019-01-18T04:42:24.083Z,-0.18
2019-01-18T04:44:59.084Z,-0.20
2019-01-18T04:47:29.780Z,-0.22
2019-01-18T04:50:01.103Z,-0.27
2019-01-18T04:52:30.898Z,-0.23
2019-01-18T04:55:00.721Z,-0.21
2019-01-18T04:57:30.670Z,-0.20
2019-01-18T05:00:03.481Z,-0.23
2019-01-18T05:02:33.714Z,-0.28
2019-01-18T05:05:03.591Z,-0.23
2019-01-18T05:07:33.431Z,-0.37
2019-01-18T05:10:03.380Z,-0.29
2019-01-18T05:12:33.219Z,-0.29
2019-01-18T05:15:07.979Z,-0.24
2019-01-18T05:17:41.214Z,-0.30
2019-01-18T05:20:11.805Z,-0.31
2019-01-18T05:22:43.905Z,-0.31
2019-01-18T05:25:17.149Z,-0.33
2019-01-18T05:27:49.983Z,-0.27
2019-01-18T05:30:22.520Z,-0.34
2019-01-18T05:32:52.809Z,-0.44
2019-01-18T05:35:24.613Z,-0.45
2019-01-18T05:37:54.514Z,-0.44
2019-01-18T05:40:30.742Z,-0.42
2019-01-18T05:43:03.281Z,-0.46
2019-01-18T05:45:33.208Z,-0.51
2019-01-18T05:48:03.048Z,-0.45
2019-01-18T05:50:32.860Z,-0.47
2019-01-18T05:53:05.960Z,-0.48
2019-01-18T05:55:35.867Z,-0.52
2019-01-18T05:58:05.783Z,-0.59
2019-01-18T06:00:39.522Z,-0.52
2019-01-18T06:03:09.484Z,-0.53
2019-01-18T06:05:41.395Z,-0.55
2019-01-18T06:08:11.138Z,-0.55
2019-01-18T06:10:41.044Z,-0.55
2019-01-18T06:13:10.902Z,-0.54
2019-01-18T06:15:40.771Z,-0.61
2019-01-18T06:18:10.905Z,-0.56
2019-01-18T06:20:40.813Z,-0.53
2019-01-18T06:23:10.737Z,-0.48
2019-01-18T06:25:40.650Z,-0.58
2019-01-18T06:28:10.505Z,-0.53
2019-01-18T06:30:40.379Z,-0.56
2019-01-18T06:33:10.310Z,-0.55
2019-01-18T06:35:40.787Z,-0.56
2019-01-18T06:38:10.623Z,-0.63
2019-01-18T06:40:40.569Z,-0.60
2019-01-18T06:43:10.491Z,-0.59
2019-01-18T06:45:40.403Z,-0.64
2019-01-18T06:48:11.959Z,-0.58
2019-01-18T06:50:41.829Z,-0.60
2019-01-18T06:53:11.739Z,-0.56
2019-01-18T06:55:41.767Z,-0.58
2019-01-18T06:58:11.653Z,-0.60
2019-01-18T07:00:41.591Z,-0.57
2019-01-18T07:03:11.469Z,-0.52
2019-01-18T07:05:41.419Z,-0.54
2019-01-18T07:08:11.387Z,-0.55
2019-01-18T07:10:41.349Z,-0.57
2019-01-18T07:13:11.351Z,-0.54
2019-01-18T07:15:41.365Z,-0.52
2019-01-18T07:18:11.301Z,-0.50
2019-01-18T07:20:41.153Z,-0.53
2019-01-18T07:23:11.071Z,-0.55
2019-01-18T07:25:40.881Z,-0.54
2019-01-18T07:28:10.794Z,-0.56
2019-01-18T07:30:42.507Z,-0.53
2019-01-18T07:33:16.890Z,-0.56
2019-01-18T07:35:46.731Z,-0.54
2019-01-18T07:38:16.757Z,-0.50
2019-01-18T07:40:46.795Z,-0.47
2019-01-18T07:43:17.626Z,-0.52
2019-01-18T07:45:47.535Z,-0.49
2019-01-18T07:48:17.491Z,-0.42
2019-01-18T07:50:47.427Z,-0.40
2019-01-18T07:53:17.366Z,-0.45
2019-01-18T07:55:47.381Z,-0.41
2019-01-18T07:58:17.361Z,-0.32
2019-01-18T08:00:47.603Z,-0.26
2019-01-18T08:03:17.669Z,-0.20
2019-01-18T08:05:47.808Z,-0.19
2019-01-18T08:08:17.804Z,-0.16
2019-01-18T08:10:47.767Z,-0.11
2019-01-18T08:13:17.732Z,-0.06
2019-01-18T08:15:47.689Z,0.02
2019-01-18T08:18:17.765Z,0.02
2019-01-18T08:20:47.499Z,0.00
2019-01-18T08:23:17.437Z,0.02
2019-01-18T08:25:47.284Z,0.11
2019-01-18T08:28:17.118Z,0.12
2019-01-18T08:30:46.884Z,0.20
2019-01-18T08:33:16.818Z,0.28
2019-01-18T08:35:46.771Z,0.36
2019-01-18T08:38:16.602Z,0.50
2019-01-18T08:40:46.920Z,0.52
2019-01-18T08:43:18.066Z,0.47
2019-01-18T08:45:59.564Z,0.63
2019-01-18T08:48:29.410Z,0.56
2019-01-18T08:50:59.361Z,0.60
2019-01-18T08:53:29.302Z,0.69
2019-01-18T08:55:59.268Z,0.78
2019-01-18T08:58:29.170Z,0.89
2019-01-18T09:00:59.181Z,1.03
2019-01-18T09:03:29.080Z,1.00
2019-01-18T09:05:59.064Z,1.07
2019-01-18T09:08:28.998Z,1.12
2019-01-18T09:10:59.008Z,1.19
2019-01-18T09:13:29.108Z,1.26
2019-01-18T09:15:59.126Z,1.32
2019-01-18T09:18:29.122Z,1.32
2019-01-18T09:20:59.084Z,1.38
2019-01-18T09:23:29.260Z,1.55
2019-01-18T09:25:59.210Z,1.73
2019-01-18T09:28:29.926Z,1.74
2019-01-18T09:30:59.967Z,1.81
2019-01-18T09:33:29.920Z,1.73
2019-01-18T09:36:01.406Z,1.64
2019-01-18T09:38:31.814Z,1.78
2019-01-18T09:41:01.734Z,1.94
2019-01-18T09:43:31.711Z,2.10
2019-01-18T09:46:01.761Z,2.25
2019-01-18T09:48:31.620Z,2.47
2019-01-18T09:51:01.430Z,2.80
2019-01-18T09:53:31.424Z,3.07
2019-01-18T09:56:01.369Z,3.63
2019-01-18T09:58:31.207Z,3.66
2019-01-18T10:01:01.020Z,4.11
2019-01-18T10:03:30.834Z,3.87
2019-01-18T10:06:00.646Z,3.69
2019-01-18T10:08:30.557Z,3.34
2019-01-18T10:11:00.308Z,3.09
2019-01-18T10:13:30.119Z,2.85
2019-01-18T10:16:00.077Z,2.86
2019-01-18T10:18:30.029Z,2.77
2019-01-18T10:20:59.897Z,2.74
2019-01-18T10:23:29.804Z,2.65
2019-01-18T10:25:59.654Z,2.75
2019-01-18T10:28:29.733Z,2.85
2019-01-18T10:30:59.587Z,2.76
2019-01-18T10:33:29.532Z,2.85
2019-01-18T10:35:59.348Z,2.87
2019-01-18T10:38:29.157Z,2.82
2019-01-18T10:40:59.009Z,2.80
2019-01-18T10:43:28.887Z,2.95
2019-01-18T10:45:58.803Z,2.94
2019-01-18T10:48:28.611Z,2.83
2019-01-18T10:50:58.509Z,2.85
2019-01-18T10:53:28.377Z,3.01
2019-01-18T10:55:58.422Z,3.04
2019-01-18T10:58:28.211Z,3.10
2019-01-18T11:00:58.111Z,3.21
2019-01-18T11:03:27.940Z,3.37
2019-01-18T11:05:57.879Z,3.20
2019-01-18T11:08:27.842Z,3.10
2019-01-18T11:10:57.823Z,3.01
2019-01-18T11:13:27.734Z,3.07
2019-01-18T11:15:57.475Z,2.92
2019-01-18T11:18:27.591Z,2.99
2019-01-18T11:21:18.297Z,3.13
2019-01-18T11:23:48.371Z,3.06
2019-01-18T11:26:18.287Z,3.19
2019-01-18T11:28:48.240Z,3.22
2019-01-18T11:31:18.086Z,3.32
2019-01-18T11:33:48.469Z,3.44
2019-01-18T11:36:18.299Z,3.40
2019-01-18T11:38:48.323Z,3.56
2019-01-18T11:41:18.535Z,3.48
2019-01-18T11:43:48.293Z,3.56
2019-01-18T11:46:18.121Z,3.66
2019-01-18T11:48:50.352Z,3.67
2019-01-18T11:51:19.540Z,3.79
2019-01-18T11:53:49.348Z,3.80
2019-01-18T11:56:19.167Z,3.82
2019-01-18T11:58:48.974Z,3.86
2019-01-18T12:01:18.682Z,4.00
2019-01-18T12:03:49.658Z,3.94
2019-01-18T12:06:19.285Z,3.88
2019-01-18T12:08:49.082Z,3.87
2019-01-18T12:11:18.966Z,3.88
2019-01-18T12:13:49.559Z,3.88
2019-01-18T12:16:19.597Z,3.86
2019-01-18T12:18:49.510Z,3.91
2019-01-18T12:21:19.500Z,3.93
2019-01-18T12:23:49.378Z,4.05
2019-01-18T12:26:19.441Z,4.30
2019-01-18T12:28:51.174Z,4.35
2019-01-18T12:31:20.826Z,4.24
2019-01-18T12:33:50.592Z,4.24
2019-01-18T12:36:20.508Z,4.26
2019-01-18T12:38:50.327Z,4.11
2019-01-18T12:41:20.154Z,4.32
2019-01-18T12:43:49.979Z,4.37
2019-01-18T12:46:19.800Z,4.51
2019-01-18T12:48:49.705Z,4.57
2019-01-18T12:51:19.468Z,4.75
2019-01-18T12:53:49.426Z,4.77
2019-01-18T12:56:19.270Z,4.94
2019-01-18T12:58:49.159Z,4.98
2019-01-18T13:01:18.972Z,4.96
2019-01-18T13:03:48.798Z,4.88
2019-01-18T13:06:18.582Z,4.89
2019-01-18T13:08:48.411Z,4.87
2019-01-18T13:11:18.303Z,5.11
2019-01-18T13:13:48.218Z,5.34
2019-01-18T13:16:25.260Z,5.27
2019-01-18T13:18:57.952Z,5.42
2019-01-18T13:21:27.800Z,5.65
2019-01-18T13:23:57.720Z,5.93
2019-01-18T13:26:28.728Z,6.01
2019-01-18T13:28:58.621Z,5.87
2019-01-18T13:31:28.432Z,5.60
2019-01-18T13:33:58.308Z,5.33
2019-01-18T13:36:28.129Z,5.22
2019-01-18T13:38:58.760Z,5.25
2019-01-18T13:41:28.609Z,5.30
2019-01-18T13:43:58.525Z,5.25
2019-01-18T13:46:28.471Z,5.14
2019-01-18T13:48:58.427Z,5.02
2019-01-18T13:51:28.375Z,4.86
2019-01-18T13:53:58.277Z,4.69
2019-01-18T13:56:28.397Z,4.57
2019-01-18T13:58:58.326Z,4.57
2019-01-18T14:01:28.090Z,4.45
2019-01-18T14:03:57.919Z,4.54
2019-01-18T14:06:29.461Z,4.54
2019-01-18T14:08:59.343Z,4.58
2019-01-18T14:11:29.096Z,4.66
2019-01-18T14:13:58.943Z,4.78
2019-01-18T14:16:28.855Z,4.77
2019-01-18T14:19:01.056Z,4.91
2019-01-18T14:21:32.127Z,5.01
2019-01-18T14:24:02.084Z,5.10
2019-01-18T14:26:32.004Z,5.05
2019-01-18T14:29:01.835Z,5.05
2019-01-18T14:31:31.585Z,5.06
2019-01-18T14:34:01.542Z,5.04
2019-01-18T14:36:31.453Z,5.08
2019-01-18T14:39:01.347Z,5.03
2019-01-18T14:41:32.779Z,4.95
2019-01-18T14:44:03.150Z,4.96
2019-01-18T14:46:33.049Z,4.95
2019-01-18T14:49:02.959Z,4.72
2019-01-18T14:51:32.883Z,4.52
2019-01-18T14:54:02.689Z,4.40
2019-01-18T14:56:32.569Z,4.34
2019-01-18T14:59:03.383Z,4.18
2019-01-18T15:01:33.288Z,4.05
2019-01-18T15:04:03.243Z,3.91
2019-01-18T15:06:33.132Z,3.84
2019-01-18T15:09:04.723Z,3.85
2019-01-18T15:11:36.232Z,3.76
2019-01-18T15:14:06.219Z,3.64
2019-01-18T15:16:36.077Z,3.46
2019-01-18T15:19:05.915Z,3.37
2019-01-18T15:21:35.826Z,3.32
2019-01-18T15:24:05.774Z,3.25
2019-01-18T15:26:35.614Z,3.31
2019-01-18T15:29:05.512Z,3.28
2019-01-18T15:31:35.551Z,3.20
2019-01-18T15:34:05.442Z,3.14
2019-01-18T15:36:35.402Z,3.12
2019-01-18T15:39:09.430Z,3.13
2019-01-18T15:41:39.552Z,3.11
2019-01-18T15:44:09.960Z,3.10
2019-01-18T15:46:39.778Z,3.06
2019-01-18T15:49:09.694Z,3.02
2019-01-18T15:51:39.656Z,2.97
2019-01-18T15:54:09.560Z,3.00
2019-01-18T15:56:39.521Z,3.11
2019-01-18T15:59:09.391Z,3.16
2019-01-18T16:01:39.312Z,3.22
2019-01-18T16:04:09.276Z,3.32
2019-01-18T16:06:41.287Z,3.40
2019-01-18T16:09:11.206Z,3.47
2019-01-18T16:11:41.239Z,3.57
2019-01-18T16:14:11.312Z,3.62
2019-01-18T16:16:45.890Z,3.62
2019-01-18T16:19:15.746Z,3.64
2019-01-18T16:21:45.493Z,3.60
2019-01-18T16:24:15.745Z,3.56
2019-01-18T16:26:45.643Z,3.50
2019-01-18T16:29:15.674Z,3.41
2019-01-18T16:31:45.533Z,3.42
2019-01-18T16:34:15.452Z,3.39
2019-01-18T16:36:45.496Z,3.32
2019-01-18T16:39:15.372Z,3.40
2019-01-18T16:41:45.257Z,3.48
2019-01-18T16:44:15.121Z,3.53
2019-01-18T16:46:45.050Z,3.54
2019-01-18T16:49:14.922Z,3.59
2019-01-18T16:51:46.476Z,3.61
2019-01-18T16:54:16.276Z,3.60
2019-01-18T16:56:46.209Z,3.64
2019-01-18T16:59:16.090Z,3.61
2019-01-18T17:01:46.045Z,3.55
2019-01-18T17:04:16.145Z,3.62
2019-01-18T17:06:46.114Z,3.62
2019-01-18T17:09:16.044Z,3.64
2019-01-18T17:11:46.033Z,3.64
2019-01-18T17:14:15.903Z,3.67
2019-01-18T17:16:45.886Z,3.65
2019-01-18T17:19:15.797Z,3.61
2019-01-18T17:21:45.779Z,3.54
2019-01-18T17:24:15.738Z,3.51
2019-01-18T17:26:45.708Z,3.38
2019-01-18T17:29:15.595Z,3.44
2019-01-18T17:31:45.557Z,3.44
2019-01-18T17:34:15.412Z,3.37
2019-01-18T17:37:07.700Z,3.28
2019-01-18T17:40:08.718Z,3.23
2019-01-18T17:43:24.489Z,3.31
2019-01-18T17:46:35.663Z,3.33
2019-01-18T17:49:34.422Z,3.39
2019-01-18T17:52:38.797Z,3.36
2019-01-18T17:55:47.565Z,3.39
2019-01-18T17:59:13.203Z,3.40
2019-01-18T18:01:57.371Z,3.38
2019-01-18T18:05:11.607Z,3.29
2019-01-18T18:08:07.451Z,3.27
2019-01-18T18:11:05.737Z,3.37
2019-01-18T18:14:18.572Z,3.39
2019-01-18T18:17:44.902Z,3.45
2019-01-18T18:20:43.563Z,3.43
2019-01-18T18:23:28.984Z,3.38
2019-01-18T18:26:48.557Z,3.42
2019-01-18T18:29:52.518Z,3.51
2019-01-18T18:33:20.117Z,3.50
2019-01-18T18:36:30.316Z,3.55
2019-01-18T18:39:15.676Z,3.44
2019-01-18T18:42:32.919Z,3.36
2019-01-18T18:45:55.200Z,3.23
2019-01-18T18:49:03.451Z,3.33
2019-01-18T18:52:09.267Z,3.28
2019-01-18T18:55:26.459Z,3.23
2019-01-18T18:58:36.480Z,3.37
2019-01-18T19:01:45.585Z,3.35
2019-01-18T19:04:53.096Z,3.25
2019-01-18T19:07:49.386Z,3.21
2019-01-18T19:10:36.840Z,3.11
2019-01-18T19:13:41.630Z,3.10
2019-01-18T19:16:29.068Z,3.23
2019-01-18T19:19:32.150Z,3.22
2019-01-18T19:22:39.594Z,3.22
2019-01-18T19:25:55.718Z,3.09
2019-01-18T19:28:52.880Z,3.00
2019-01-18T19:32:00.136Z,2.98
2019-01-18T19:34:47.566Z,2.96
2019-01-18T19:37:57.030Z,2.83
2019-01-18T19:41:07.350Z,2.83
2019-01-18T19:44:17.572Z,2.87
2019-01-18T19:47:16.259Z,2.78
2019-01-18T19:50:23.324Z,2.83
2019-01-18T19:53:10.122Z,2.81
2019-01-18T19:56:42.352Z,2.76
2019-01-18T20:00:04.601Z,2.66
2019-01-18T20:03:30.137Z,2.57
2019-01-18T20:06:14.951Z,2.51
2019-01-18T20:09:16.290Z,2.35
2019-01-18T20:12:54.928Z,2.30
2019-01-18T20:15:52.959Z,2.27
2019-01-18T20:19:08.996Z,2.17
2019-01-18T20:22:16.558Z,2.13
2019-01-18T20:25:30.547Z,2.14
2019-01-18T20:28:12.039Z,2.11
2019-01-18T20:31:23.377Z,2.08
2019-01-18T20:34:55.769Z,2.08
2019-01-18T20:38:02.844Z,1.93
2019-01-18T20:41:17.275Z,1.97
2019-01-18T20:44:46.800Z,1.92
2019-01-18T20:47:45.448Z,1.90
2019-01-18T20:50:52.289Z,1.80
2019-01-18T20:53:50.641Z,1.72
2019-01-18T20:57:04.713Z,1.73
2019-01-18T21:00:02.795Z,1.72
2019-01-18T21:02:46.670Z,1.63
2019-01-18T21:05:45.870Z,1.63
2019-01-18T21:08:52.745Z,1.61
2019-01-18T21:11:49.263Z,1.60
2019-01-18T21:14:47.032Z,1.58
2019-01-18T21:17:47.824Z,1.60
2019-01-18T21:20:37.328Z,1.59
2019-01-18T21:24:03.905Z,1.62
2019-01-18T21:27:16.611Z,1.72
2019-01-18T21:30:15.703Z,1.83
2019-01-18T21:33:09.461Z,1.99
2019-01-18T21:36:31.560Z,2.10
2019-01-18T21:39:13.861Z,2.10
2019-01-18T21:42:17.517Z,2.13
2019-01-18T21:45:47.149Z,2.19
2019-01-18T21:49:00.217Z,2.18
2019-01-18T21:52:13.425Z,2.18
2019-01-18T21:55:01.012Z,2.18
2019-01-18T21:58:15.185Z,2.05
2019-01-18T22:01:28.414Z,2.00
2019-01-18T22:04:06.229Z,1.82
2019-01-18T22:07:10.025Z,1.72
2019-01-18T22:10:30.037Z,1.66
2019-01-18T22:13:14.879Z,1.62
2019-01-18T22:16:10.323Z,1.56
2019-01-18T22:19:20.817Z,1.46
2019-01-18T22:22:32.282Z,1.35
2019-01-18T22:25:34.289Z,1.23
2019-01-18T22:28:19.489Z,1.18
2019-01-18T22:31:22.739Z,1.07
2019-01-18T22:34:18.684Z,1.07
2019-01-18T22:37:29.873Z,1.02
2019-01-18T22:40:44.355Z,1.01
2019-01-18T22:43:59.815Z,0.91
2019-01-18T22:47:16.097Z,0.90
2019-01-18T22:50:07.346Z,0.75
2019-01-18T22:53:30.565Z,0.75
2019-01-18T22:56:29.673Z,0.79
2019-01-18T22:59:31.615Z,0.77
2019-01-18T23:02:51.390Z,0.75
2019-01-18T23:06:08.916Z,0.74
2019-01-18T23:09:10.467Z,0.61
2019-01-18T23:12:07.185Z,0.59
2019-01-18T23:15:33.573Z,0.55
2019-01-18T23:18:18.370Z,0.45
2019-01-18T23:21:40.819Z,0.42
2019-01-18T23:24:16.080Z,0.43
2019-01-18T23:27:29.498Z,0.36
2019-01-18T23:30:26.073Z,0.38
2019-01-18T23:33:49.519Z,0.35
2019-01-18T23:36:31.409Z,0.34
2019-01-18T23:39:36.450Z,0.37
2019-01-18T23:42:32.098Z,0.35
2019-01-18T23:45:39.013Z,0.40
2019-01-18T23:49:00.250Z,0.35
2019-01-18T23:52:08.189Z,0.32
2019-01-18T23:55:19.017Z,0.20
2019-01-18T23:58:22.410Z,0.19
